Terminal Aerodrome Forecast
Issued by NWS

Home | Current Version | Previous Version | Text Only | Print | Product List | Glossary On
Versions: 1 2 3 4 5 6 7 8 9 10 11 12
804
FTUS45 KPIH 181740
TAFSUN
TAF
KSUN 181740Z 1818/1918 15006KT P6SM VCSH SCT015 OVC050
      TEMPO 1818/1822 2SM -SN BKN015 OVC050
     FM182200 15008KT P6SM VCSH BKN015 OVC040
     FM190100 14006KT 1 1/2SM -SN SCT008 OVC015
     FM190600 14006KT 1/2SM SN VV008
     FM191200 VRB05KT 1SM -SN SCT008 OVC015=

USA.gov is the U.S. government's official web portal to all federal, state and local government web resources and services.